AAL6432 KBFL-KDFW
Flight info
| Callsign | AAL6432 |
|---|---|
| Flight time | N/A |
| Altitude | 35000 |
| Route | EHF V23 GMN LAX TRM BLH J169 TFD J50 SSO J4 INK GEEKY BOOVE7 |
| Aircraft | A20N/M-SDE2E3FGHIRWXY/LB1 |
Departure
| Time | 2026-04-27 14:27 |
|---|---|
| Airport | Meadows Field (KBFL) |
Arrival
| Time | N/A |
|---|---|
| Airport | Dallas Fort Worth International Airport (KDFW) |
| Time | Latitude | Longitude | Altitude | Speed | Heading |
|---|---|---|---|---|---|
| 2026-04-27 13:53 | 35.43702 | -119.05441 | 489 ft | 0 kts | 347° |
| 2026-04-27 14:16 | 35.43684 | -119.05436 | 481 ft | 3 kts | 347° |
| 2026-04-27 14:17 | 35.43663 | -119.05430 | 488 ft | 3 kts | 347° |
| 2026-04-27 14:17 | 35.43660 | -119.05430 | 488 ft | 0 kts | 347° |
| 2026-04-27 14:20 | 35.43663 | -119.05437 | 487 ft | 2 kts | 302° |
| 2026-04-27 14:20 | 35.43662 | -119.05440 | 485 ft | 0 kts | 272° |
| 2026-04-27 14:21 | 35.43657 | -119.05450 | 481 ft | 4 kts | 240° |
| 2026-04-27 14:21 | 35.43652 | -119.05458 | 484 ft | 0 kts | 233° |
| 2026-04-27 14:23 | 35.43634 | -119.05487 | 487 ft | 9 kts | 231° |
| 2026-04-27 14:23 | 35.43569 | -119.05544 | 485 ft | 14 kts | 198° |
| 2026-04-27 14:23 | 35.43468 | -119.05491 | 483 ft | 19 kts | 141° |
| 2026-04-27 14:23 | 35.43363 | -119.05373 | 478 ft | 21 kts | 136° |
| 2026-04-27 14:24 | 35.43263 | -119.05249 | 483 ft | 20 kts | 134° |
| 2026-04-27 14:24 | 35.43170 | -119.05135 | 480 ft | 18 kts | 136° |
| 2026-04-27 14:24 | 35.43088 | -119.05036 | 488 ft | 15 kts | 135° |
| 2026-04-27 14:24 | 35.43017 | -119.04950 | 484 ft | 14 kts | 134° |
| 2026-04-27 14:25 | 35.42953 | -119.04871 | 488 ft | 14 kts | 136° |
| 2026-04-27 14:25 | 35.42881 | -119.04787 | 481 ft | 14 kts | 134° |
| 2026-04-27 14:25 | 35.42812 | -119.04702 | 481 ft | 14 kts | 138° |
| 2026-04-27 14:25 | 35.42738 | -119.04612 | 486 ft | 15 kts | 135° |
| 2026-04-27 14:26 | 35.42666 | -119.04527 | 485 ft | 14 kts | 136° |
| 2026-04-27 14:26 | 35.42595 | -119.04511 | 486 ft | 10 kts | 245° |
| 2026-04-27 14:26 | 35.42578 | -119.04579 | 484 ft | 5 kts | 256° |
| 2026-04-27 14:26 | 35.42576 | -119.04612 | 487 ft | 9 kts | 275° |
| 2026-04-27 14:27 | 35.42655 | -119.04739 | 485 ft | 35 kts | 315° |
| 2026-04-27 14:27 | 35.43021 | -119.05179 | 483 ft | 111 kts | 310° |
| 2026-04-27 14:27 | 35.43691 | -119.06059 | 490 ft | 169 kts | 308° |
| 2026-04-27 14:27 | 35.44490 | -119.07151 | 1268 ft | 167 kts | 308° |
| 2026-04-27 14:28 | 35.45234 | -119.08209 | 2279 ft | 162 kts | 311° |
| 2026-04-27 14:28 | 35.46037 | -119.09258 | 2909 ft | 178 kts | 312° |
| 2026-04-27 14:28 | 35.46940 | -119.10419 | 3372 ft | 198 kts | 312° |
| 2026-04-27 14:28 | 35.47953 | -119.11719 | 3779 ft | 222 kts | 312° |
| 2026-04-27 14:29 | 35.49074 | -119.13155 | 4286 ft | 244 kts | 312° |
| 2026-04-27 14:29 | 35.50300 | -119.14720 | 4864 ft | 260 kts | 312° |
| 2026-04-27 14:29 | 35.51567 | -119.16330 | 4998 ft | 263 kts | 312° |
| 2026-04-27 14:29 | 35.52831 | -119.17945 | 4996 ft | 262 kts | 311° |
| 2026-04-27 14:30 | 35.53745 | -119.19859 | 4994 ft | 262 kts | 283° |
| 2026-04-27 14:30 | 35.53750 | -119.22081 | 5115 ft | 266 kts | 253° |
| 2026-04-27 14:30 | 35.52790 | -119.24015 | 5818 ft | 270 kts | 221° |
| 2026-04-27 14:30 | 35.51156 | -119.25121 | 6812 ft | 272 kts | 195° |
| 2026-04-27 14:31 | 35.49291 | -119.25622 | 7663 ft | 277 kts | 192° |
| 2026-04-27 14:31 | 35.47393 | -119.26077 | 8541 ft | 281 kts | 192° |
| 2026-04-27 14:31 | 35.45450 | -119.26515 | 9420 ft | 285 kts | 192° |
| 2026-04-27 14:31 | 35.43479 | -119.26933 | 10253 ft | 291 kts | 192° |
| 2026-04-27 14:32 | 35.41415 | -119.27348 | 10639 ft | 312 kts | 192° |
| 2026-04-27 14:32 | 35.39186 | -119.27788 | 10934 ft | 334 kts | 192° |
| 2026-04-27 14:32 | 35.36867 | -119.28238 | 11616 ft | 340 kts | 192° |
| 2026-04-27 14:32 | 35.34516 | -119.28677 | 12434 ft | 343 kts | 192° |
| 2026-04-27 14:33 | 35.32142 | -119.29097 | 13220 ft | 347 kts | 192° |
| 2026-04-27 14:33 | 35.29744 | -119.29501 | 14010 ft | 350 kts | 192° |
| 2026-04-27 14:33 | 35.27315 | -119.29892 | 14695 ft | 353 kts | 192° |
| 2026-04-27 14:33 | 35.24866 | -119.30271 | 15382 ft | 357 kts | 192° |
| 2026-04-27 14:34 | 35.22384 | -119.30641 | 16063 ft | 360 kts | 192° |
| 2026-04-27 14:34 | 35.19915 | -119.30996 | 16726 ft | 364 kts | 192° |
| 2026-04-27 14:34 | 35.17388 | -119.31349 | 17393 ft | 367 kts | 192° |
| 2026-04-27 14:34 | 35.14798 | -119.31701 | 18053 ft | 371 kts | 191° |
| 2026-04-27 14:35 | 35.12181 | -119.31598 | 18656 ft | 386 kts | 174° |
| 2026-04-27 14:35 | 35.09653 | -119.30491 | 19250 ft | 399 kts | 156° |
| 2026-04-27 14:35 | 35.07400 | -119.28425 | 19824 ft | 412 kts | 138° |
| 2026-04-27 14:35 | 35.05677 | -119.25582 | 20362 ft | 423 kts | 122° |
| 2026-04-27 14:36 | 35.04397 | -119.22320 | 20927 ft | 429 kts | 116° |
| 2026-04-27 14:36 | 35.03191 | -119.18983 | 21479 ft | 432 kts | 117° |
| 2026-04-27 14:36 | 35.01909 | -119.15651 | 22030 ft | 434 kts | 119° |
| 2026-04-27 14:36 | 35.00550 | -119.12364 | 22581 ft | 436 kts | 121° |
| 2026-04-27 14:37 | 34.99130 | -119.09085 | 23137 ft | 438 kts | 122° |
| 2026-04-27 14:37 | 34.97675 | -119.05802 | 23687 ft | 441 kts | 122° |
| 2026-04-27 14:37 | 34.96203 | -119.02511 | 24126 ft | 443 kts | 123° |
| 2026-04-27 14:37 | 34.94723 | -118.99209 | 24570 ft | 445 kts | 123° |
| 2026-04-27 14:38 | 34.93235 | -118.95893 | 24991 ft | 448 kts | 123° |
| 2026-04-27 14:38 | 34.91734 | -118.92550 | 25424 ft | 450 kts | 123° |
| 2026-04-27 14:38 | 34.90465 | -118.89723 | 25797 ft | 452 kts | 123° |
| 2026-04-27 14:38 | 34.88949 | -118.86345 | 26188 ft | 455 kts | 123° |
| 2026-04-27 14:39 | 34.87425 | -118.82953 | 26584 ft | 458 kts | 123° |
| 2026-04-27 14:39 | 34.85895 | -118.79550 | 26957 ft | 461 kts | 123° |
| 2026-04-27 14:39 | 34.84349 | -118.76116 | 27330 ft | 464 kts | 123° |
| 2026-04-27 14:39 | 34.82791 | -118.72655 | 27695 ft | 467 kts | 123° |
| 2026-04-27 14:40 | 34.81223 | -118.69178 | 28035 ft | 470 kts | 123° |
| 2026-04-27 14:40 | 34.79649 | -118.65691 | 28363 ft | 473 kts | 124° |
| 2026-04-27 14:40 | 34.78079 | -118.62215 | 28677 ft | 475 kts | 124° |
| 2026-04-27 14:40 | 34.76462 | -118.58640 | 28993 ft | 478 kts | 124° |
| 2026-04-27 14:41 | 34.74856 | -118.55093 | 29287 ft | 481 kts | 124° |
| 2026-04-27 14:41 | 34.73238 | -118.51521 | 29579 ft | 484 kts | 124° |
| 2026-04-27 14:41 | 34.71609 | -118.47929 | 29875 ft | 486 kts | 124° |
| 2026-04-27 14:41 | 34.69984 | -118.44352 | 30164 ft | 489 kts | 124° |
| 2026-04-27 14:42 | 34.68337 | -118.40728 | 30420 ft | 492 kts | 124° |
| 2026-04-27 14:42 | 34.66677 | -118.37080 | 30688 ft | 494 kts | 125° |
| 2026-04-27 14:42 | 34.64990 | -118.33374 | 30959 ft | 496 kts | 125° |
| 2026-04-27 14:42 | 34.63336 | -118.29746 | 31240 ft | 498 kts | 125° |
| 2026-04-27 14:43 | 34.61637 | -118.26022 | 31588 ft | 498 kts | 125° |
| 2026-04-27 14:43 | 34.59981 | -118.22394 | 31944 ft | 498 kts | 126° |
| 2026-04-27 14:43 | 34.58300 | -118.18719 | 32301 ft | 497 kts | 126° |
| 2026-04-27 14:43 | 34.56620 | -118.15047 | 32616 ft | 498 kts | 126° |
| 2026-04-27 14:44 | 34.54939 | -118.11378 | 32916 ft | 498 kts | 126° |
| 2026-04-27 14:44 | 34.53256 | -118.07710 | 33229 ft | 498 kts | 126° |
| 2026-04-27 14:44 | 34.51571 | -118.04042 | 33532 ft | 498 kts | 127° |
| 2026-04-27 14:44 | 34.49880 | -118.00363 | 33822 ft | 498 kts | 127° |
| 2026-04-27 14:45 | 34.48200 | -117.96713 | 34092 ft | 497 kts | 127° |
| 2026-04-27 14:45 | 34.46509 | -117.93044 | 34310 ft | 497 kts | 127° |
| 2026-04-27 14:45 | 34.44822 | -117.89388 | 34513 ft | 498 kts | 127° |
| 2026-04-27 14:45 | 34.43128 | -117.85719 | 34739 ft | 498 kts | 127° |
| 2026-04-27 14:46 | 34.41436 | -117.82058 | 34945 ft | 499 kts | 127° |
| 2026-04-27 14:46 | 34.38047 | -117.74737 | 35023 ft | 497 kts | 128° |
| 2026-04-27 14:47 | 34.34681 | -117.67481 | 35029 ft | 498 kts | 128° |
| 2026-04-27 14:47 | 34.31305 | -117.60223 | 35045 ft | 498 kts | 128° |
| 2026-04-27 14:48 | 34.27873 | -117.52856 | 35044 ft | 499 kts | 128° |
| 2026-04-27 14:48 | 34.22751 | -117.41883 | 35049 ft | 498 kts | 129° |
| 2026-04-27 14:49 | 34.22202 | -117.40710 | 35028 ft | 499 kts | 129° |
| 2026-04-27 14:49 | 34.21901 | -117.40067 | 35026 ft | 499 kts | 129° |
| 2026-04-27 14:50 | 34.18484 | -117.32774 | 35047 ft | 498 kts | 129° |
| 2026-04-27 14:50 | 34.15068 | -117.25500 | 35041 ft | 499 kts | 129° |
| 2026-04-27 14:51 | 34.11634 | -117.18202 | 35043 ft | 500 kts | 129° |
| 2026-04-27 14:51 | 34.08773 | -117.12131 | 35050 ft | 500 kts | 130° |
| 2026-04-27 14:52 | 34.04743 | -117.03601 | 35037 ft | 501 kts | 130° |
| 2026-04-27 14:52 | 34.01283 | -116.96291 | 35019 ft | 503 kts | 130° |
| 2026-04-27 14:53 | 33.97805 | -116.88962 | 35019 ft | 504 kts | 130° |
| 2026-04-27 14:53 | 33.94314 | -116.81617 | 35025 ft | 505 kts | 130° |
| 2026-04-27 14:54 | 33.90836 | -116.74313 | 35002 ft | 506 kts | 130° |
| 2026-04-27 14:54 | 33.87318 | -116.66929 | 34986 ft | 503 kts | 130° |
| 2026-04-27 14:55 | 33.83840 | -116.59652 | 34963 ft | 500 kts | 131° |
| 2026-04-27 14:55 | 33.80410 | -116.52486 | 34996 ft | 497 kts | 131° |
| 2026-04-27 14:56 | 33.76882 | -116.45175 | 34995 ft | 505 kts | 131° |
| 2026-04-27 14:56 | 33.73391 | -116.37923 | 34995 ft | 504 kts | 131° |
| 2026-04-27 14:57 | 33.69882 | -116.30644 | 34994 ft | 504 kts | 131° |
| 2026-04-27 14:57 | 33.66371 | -116.23374 | 34997 ft | 503 kts | 131° |
| 2026-04-27 14:58 | 33.63452 | -116.15598 | 34993 ft | 526 kts | 113° |
| 2026-04-27 14:58 | 33.62771 | -116.11250 | 34994 ft | 538 kts | 102° |
| 2026-04-27 14:58 | 33.62614 | -116.06731 | 34994 ft | 543 kts | 97° |
| 2026-04-27 14:59 | 33.62475 | -115.97671 | 35001 ft | 543 kts | 97° |
| 2026-04-27 14:59 | 33.62308 | -115.88595 | 34995 ft | 544 kts | 97° |
| 2026-04-27 15:00 | 33.62134 | -115.79775 | 34990 ft | 544 kts | 97° |
| 2026-04-27 15:00 | 33.61980 | -115.72215 | 34990 ft | 544 kts | 97° |
| 2026-04-27 15:01 | 33.61788 | -115.63154 | 34990 ft | 544 kts | 97° |
| 2026-04-27 15:01 | 33.61589 | -115.54059 | 34984 ft | 545 kts | 97° |
| 2026-04-27 15:02 | 33.61383 | -115.44974 | 34996 ft | 545 kts | 97° |
| 2026-04-27 15:02 | 33.61172 | -115.35892 | 34993 ft | 545 kts | 97° |
| 2026-04-27 15:03 | 33.60954 | -115.26819 | 34963 ft | 544 kts | 97° |
| 2026-04-27 15:03 | 33.60730 | -115.17813 | 34972 ft | 543 kts | 97° |
| 2026-04-27 15:04 | 33.60499 | -115.08774 | 34978 ft | 543 kts | 97° |
| 2026-04-27 15:04 | 33.60261 | -114.99736 | 34972 ft | 543 kts | 97° |
| 2026-04-27 15:05 | 33.60023 | -114.90911 | 35000 ft | 543 kts | 97° |
| 2026-04-27 15:05 | 33.59771 | -114.81842 | 35009 ft | 543 kts | 97° |
| 2026-04-27 15:06 | 33.59316 | -114.72830 | 35010 ft | 538 kts | 103° |
| 2026-04-27 15:06 | 33.58514 | -114.63888 | 35009 ft | 539 kts | 102° |
| 2026-04-27 15:07 | 33.57724 | -114.54957 | 35003 ft | 539 kts | 102° |
| 2026-04-27 15:07 | 33.56920 | -114.46008 | 35000 ft | 539 kts | 103° |
| 2026-04-27 15:08 | 33.56109 | -114.37076 | 34991 ft | 539 kts | 103° |
| 2026-04-27 15:08 | 33.55290 | -114.28131 | 34976 ft | 539 kts | 103° |
| 2026-04-27 15:09 | 33.54482 | -114.19370 | 34979 ft | 539 kts | 103° |
| 2026-04-27 15:09 | 33.53655 | -114.10486 | 34986 ft | 539 kts | 103° |
| 2026-04-27 15:10 | 33.52844 | -114.01836 | 34978 ft | 538 kts | 103° |
| 2026-04-27 15:10 | 33.52002 | -113.92912 | 34997 ft | 538 kts | 103° |
| 2026-04-27 15:11 | 33.51155 | -113.84010 | 35006 ft | 537 kts | 103° |